Time;durP1;ratioP1;P1;durP2;ratioP2;P2;SDS_P1;SDS_P2;PMS_P1;PMS_P2;Temp;Humidity;BMP_temperature;BMP_pressure;BME280_temperature;BME280_humidity;BME280_pressure;Samples;Min_cycle;Max_cycle;Signal;HPM_P1;HPM_P2
2021/07/04 00:02:06;;;;;;;9.88;6.30;;;17.00;99.90;;;;;;5073648;28;20505;-84
2021/07/04 00:04:54;;;;;;;8.63;6.20;;;16.90;99.90;;;;;;5057853;28;20064;-83
2021/07/04 00:07:42;;;;;;;8.52;5.68;;;16.90;99.90;;;;;;5073946;28;20124;-83
2021/07/04 00:10:33;;;;;;;9.68;6.80;;;16.90;99.90;;;;;;5059111;28;20048;-83
2021/07/04 00:13:21;;;;;;;9.65;6.30;;;16.80;99.90;;;;;;5091734;28;20311;-84
2021/07/04 00:16:08;;;;;;;9.70;6.38;;;16.80;99.90;;;;;;5092681;28;20627;-85
2021/07/04 00:18:55;;;;;;;8.55;6.03;;;16.70;99.90;;;;;;5093338;28;20543;-84
2021/07/04 00:21:44;;;;;;;10.55;6.53;;;16.70;99.90;;;;;;5078465;28;20044;-83
2021/07/04 00:24:31;;;;;;;13.18;7.07;;;16.70;99.90;;;;;;5093139;28;20051;-83
2021/07/04 00:27:18;;;;;;;8.43;5.97;;;16.70;99.90;;;;;;5093288;28;20042;-83
2021/07/04 00:30:06;;;;;;;9.80;6.72;;;16.60;99.90;;;;;;5093472;28;20058;-83
2021/07/04 00:32:54;;;;;;;9.00;6.30;;;16.60;99.90;;;;;;5078787;28;20523;-83
2021/07/04 00:35:41;;;;;;;10.98;6.30;;;16.60;99.90;;;;;;5093606;28;20508;-82
2021/07/04 00:38:29;;;;;;;13.25;6.75;;;16.50;99.90;;;;;;5093373;28;20066;-83
2021/07/04 00:41:17;;;;;;;7.47;5.45;;;16.60;99.90;;;;;;5094289;28;20127;-83
2021/07/04 00:44:05;;;;;;;8.85;6.35;;;16.60;99.90;;;;;;5077353;28;20431;-83
2021/07/04 00:46:52;;;;;;;11.60;6.40;;;16.60;99.90;;;;;;5077518;28;20044;-83
2021/07/04 00:49:39;;;;;;;9.27;6.30;;;16.60;99.90;;;;;;5076936;28;20048;-83
2021/07/04 00:52:26;;;;;;;9.43;6.60;;;16.60;99.90;;;;;;5093533;28;20127;-83
2021/07/04 00:55:17;;;;;;;9.07;6.28;;;16.50;99.90;;;;;;5092996;28;20044;-84
2021/07/04 00:58:04;;;;;;;13.98;6.63;;;16.50;99.90;;;;;;5093840;28;20046;-84
2021/07/04 01:00:51;;;;;;;10.20;6.82;;;16.50;99.90;;;;;;5099431;28;20052;-83
2021/07/04 01:03:38;;;;;;;9.25;6.60;;;16.50;99.90;;;;;;5100966;28;20044;-83
2021/07/04 01:06:25;;;;;;;14.45;7.38;;;16.50;99.90;;;;;;5084062;28;20468;-83
2021/07/04 01:09:12;;;;;;;11.57;6.82;;;16.50;99.90;;;;;;5083844;28;20050;-84
2021/07/04 01:12:00;;;;;;;13.38;7.30;;;16.60;99.90;;;;;;5078160;28;20127;-84
2021/07/04 01:14:48;;;;;;;10.05;7.32;;;16.60;99.90;;;;;;5084827;28;20117;-83
2021/07/04 01:17:37;;;;;;;11.60;7.97;;;16.60;99.90;;;;;;5084425;28;20089;-83
2021/07/04 01:20:26;;;;;;;11.20;7.13;;;16.60;99.90;;;;;;5084623;28;20048;-83
2021/07/04 01:23:16;;;;;;;12.80;7.55;;;16.60;99.90;;;;;;5084334;28;20055;-83
2021/07/04 01:26:03;;;;;;;10.30;7.15;;;16.70;99.90;;;;;;5084834;28;20044;-84
2021/07/04 01:28:50;;;;;;;14.32;8.00;;;16.70;99.90;;;;;;5085152;28;20111;-84
2021/07/04 01:31:37;;;;;;;9.50;7.57;;;16.80;99.90;;;;;;5084558;28;20126;-83
2021/07/04 01:34:24;;;;;;;11.32;7.03;;;16.80;99.90;;;;;;5100426;28;20123;-84
2021/07/04 01:37:11;;;;;;;9.43;6.93;;;16.90;99.90;;;;;;5085736;28;20496;-83
2021/07/04 01:40:00;;;;;;;9.50;7.05;;;16.90;99.90;;;;;;5086178;28;20048;-84
2021/07/04 01:42:47;;;;;;;12.05;7.45;;;16.90;99.90;;;;;;5100803;28;20591;-84
2021/07/04 01:45:36;;;;;;;10.93;7.15;;;17.00;99.90;;;;;;5101431;28;20462;-84
2021/07/04 01:48:23;;;;;;;10.05;6.97;;;17.00;99.90;;;;;;5085516;28;20044;-84
2021/07/04 01:51:10;;;;;;;8.65;6.10;;;17.00;99.90;;;;;;5101469;28;20051;-84
2021/07/04 01:53:57;;;;;;;9.82;6.50;;;17.10;99.90;;;;;;5101125;28;20043;-84
2021/07/04 01:56:45;;;;;;;9.55;6.55;;;17.10;99.90;;;;;;5099745;28;20040;-84
2021/07/04 01:59:32;;;;;;;9.05;6.53;;;17.20;99.90;;;;;;5085272;28;20044;-84
2021/07/04 02:02:20;;;;;;;10.57;6.45;;;17.10;99.90;;;;;;5083715;28;20043;-83
2021/07/04 02:05:08;;;;;;;8.32;6.03;;;17.10;99.90;;;;;;5084058;28;20130;-83
2021/07/04 02:07:55;;;;;;;11.27;6.32;;;17.10;99.90;;;;;;5084037;28;20241;-83
2021/07/04 02:10:42;;;;;;;8.90;6.25;;;17.20;99.90;;;;;;5100162;28;20040;-83
2021/07/04 02:13:31;;;;;;;8.68;6.03;;;17.20;99.90;;;;;;5075347;28;20813;-83
2021/07/04 02:16:18;;;;;;;9.68;6.45;;;17.20;99.90;;;;;;5077680;28;20048;-83
2021/07/04 02:19:05;;;;;;;7.72;6.05;;;17.20;99.90;;;;;;5074010;28;20037;-83
2021/07/04 02:21:53;;;;;;;10.30;6.95;;;17.20;99.90;;;;;;5076992;28;20604;-83
2021/07/04 02:24:40;;;;;;;12.65;6.65;;;17.20;99.90;;;;;;5076465;28;20563;-83
2021/07/04 02:27:27;;;;;;;10.88;6.32;;;17.20;99.90;;;;;;5075970;28;20132;-82
2021/07/04 02:30:16;;;;;;;7.95;5.80;;;17.10;99.90;;;;;;5077037;28;20040;-84
2021/07/04 02:33:06;;;;;;;9.32;6.00;;;17.10;99.90;;;;;;5090601;28;20084;-84
2021/07/04 02:35:56;;;;;;;9.43;6.20;;;17.20;99.90;;;;;;5082510;28;20044;-83
2021/07/04 02:38:43;;;;;;;8.85;6.28;;;17.20;99.90;;;;;;5096763;28;20043;-84
2021/07/04 02:41:30;;;;;;;8.90;6.07;;;17.20;99.90;;;;;;5097961;28;20572;-85
2021/07/04 02:44:17;;;;;;;11.45;6.88;;;17.20;99.90;;;;;;5082853;28;20048;-85
2021/07/04 02:47:06;;;;;;;8.13;6.20;;;17.20;99.90;;;;;;5083486;28;20051;-85
2021/07/04 02:49:53;;;;;;;9.82;6.72;;;17.20;99.90;;;;;;5097355;28;20539;-85
2021/07/04 02:52:40;;;;;;;8.68;6.93;;;17.20;99.90;;;;;;5096895;28;20420;-84
2021/07/04 02:55:28;;;;;;;7.93;5.90;;;17.20;99.90;;;;;;5098449;28;20122;-84
2021/07/04 02:58:15;;;;;;;11.13;6.63;;;17.20;99.90;;;;;;5081366;28;20049;-84
2021/07/04 03:01:03;;;;;;;9.52;6.72;;;17.20;99.90;;;;;;5097324;28;20123;-85
2021/07/04 03:03:51;;;;;;;9.05;6.03;;;17.10;99.90;;;;;;5097724;28;20044;-84
2021/07/04 03:06:39;;;;;;;10.52;6.15;;;17.20;99.90;;;;;;5081774;28;20048;-84
2021/07/04 03:09:26;;;;;;;11.18;6.75;;;17.10;99.90;;;;;;5081183;28;20044;-85
2021/07/04 03:12:13;;;;;;;12.93;6.15;;;17.20;99.90;;;;;;5073402;28;20462;-85
2021/07/04 03:15:00;;;;;;;9.32;6.65;;;17.20;99.90;;;;;;5062704;28;20044;-84
2021/07/04 03:17:48;;;;;;;8.52;6.40;;;17.20;99.90;;;;;;5060569;28;20043;-84
2021/07/04 03:20:36;;;;;;;10.77;6.75;;;17.20;99.90;;;;;;5077564;28;20040;-85
2021/07/04 03:23:23;;;;;;;10.25;6.47;;;17.30;99.90;;;;;;5076305;28;20147;-85
2021/07/04 03:26:10;;;;;;;9.38;6.97;;;17.20;99.90;;;;;;5078040;28;20054;-84
2021/07/04 03:28:57;;;;;;;11.88;6.40;;;17.20;99.90;;;;;;5063409;28;20493;-85
2021/07/04 03:31:44;;;;;;;10.93;6.57;;;17.30;99.90;;;;;;5079814;28;20130;-85
2021/07/04 03:34:32;;;;;;;9.30;6.88;;;17.30;99.90;;;;;;5098685;28;20043;-85
2021/07/04 03:37:20;;;;;;;9.10;6.78;;;17.30;99.90;;;;;;5081701;28;20050;-85
2021/07/04 03:40:10;;;;;;;11.57;6.53;;;17.30;99.90;;;;;;5103347;28;20048;-83
2021/07/04 03:42:58;;;;;;;9.82;6.15;;;17.30;99.90;;;;;;5088571;28;20052;-83
2021/07/04 03:45:45;;;;;;;11.18;7.00;;;17.30;99.90;;;;;;5079719;28;20055;-83
2021/07/04 03:48:33;;;;;;;10.50;6.88;;;17.30;99.90;;;;;;5079355;28;20040;-83
2021/07/04 03:51:20;;;;;;;11.35;7.00;;;17.30;99.90;;;;;;5094541;28;20127;-83
2021/07/04 03:54:09;;;;;;;11.75;6.75;;;17.30;99.90;;;;;;5094145;28;20050;-82
2021/07/04 03:56:56;;;;;;;12.77;7.10;;;17.20;99.90;;;;;;5077734;28;20075;-82
2021/07/04 03:59:43;;;;;;;10.80;6.95;;;17.30;99.90;;;;;;5093708;28;20062;-84
2021/07/04 04:02:30;;;;;;;8.80;6.70;;;17.20;99.90;;;;;;5094009;28;20122;-83
2021/07/04 04:05:17;;;;;;;11.65;6.80;;;17.20;99.90;;;;;;5077809;28;20040;-83
2021/07/04 04:08:06;;;;;;;8.68;6.68;;;17.30;99.90;;;;;;5094060;28;20131;-83
2021/07/04 04:10:55;;;;;;;9.43;6.85;;;17.20;99.90;;;;;;5077364;28;20097;-84
2021/07/04 04:13:42;;;;;;;10.05;7.18;;;17.30;99.90;;;;;;5073901;28;20119;-84
2021/07/04 04:16:29;;;;;;;9.90;6.72;;;17.40;99.90;;;;;;5072905;28;20143;-83
2021/07/04 04:19:16;;;;;;;11.90;7.28;;;17.50;99.90;;;;;;5071978;28;20040;-84
2021/07/04 04:22:04;;;;;;;10.70;7.15;;;17.60;99.90;;;;;;5072809;28;20052;-83
2021/07/04 04:24:51;;;;;;;9.77;7.00;;;17.60;99.90;;;;;;5058370;28;20506;-83
2021/07/04 04:27:39;;;;;;;9.18;6.90;;;17.70;99.90;;;;;;5058775;28;20044;-82
2021/07/04 04:30:26;;;;;;;10.43;6.85;;;17.70;99.90;;;;;;5058540;28;20052;-84
2021/07/04 04:33:13;;;;;;;9.88;7.30;;;17.80;99.90;;;;;;5067671;28;20036;-84
2021/07/04 04:36:01;;;;;;;11.32;7.00;;;17.90;99.90;;;;;;5072278;28;20521;-83
2021/07/04 04:41:21;;;;;;;10.27;7.18;;;18.00;99.90;;;;;;5055725;28;20057;-86
2021/07/04 04:44:10;;;;;;;10.55;7.30;;;18.00;99.90;;;;;;5069703;28;20067;-86
2021/07/04 04:46:57;;;;;;;11.05;7.68;;;18.10;99.90;;;;;;5044387;28;20048;-86
2021/07/04 04:49:44;;;;;;;11.95;7.20;;;18.20;99.90;;;;;;5059598;28;20137;-85
2021/07/04 04:52:31;;;;;;;11.77;7.25;;;18.20;99.90;;;;;;5059772;28;20059;-85
2021/07/04 04:55:19;;;;;;;8.77;7.13;;;18.20;99.90;;;;;;5060198;28;20040;-86
2021/07/04 04:58:06;;;;;;;11.60;6.90;;;18.20;99.90;;;;;;5060815;28;20067;-88
2021/07/04 05:00:54;;;;;;;9.30;6.55;;;18.30;99.90;;;;;;5058593;28;20555;-86
2021/07/04 05:03:41;;;;;;;10.05;6.68;;;18.40;99.90;;;;;;5060770;28;20049;-84
2021/07/04 05:06:29;;;;;;;11.70;8.35;;;18.50;99.90;;;;;;5059458;28;20183;-85
2021/07/04 05:09:16;;;;;;;9.40;6.93;;;18.50;99.90;;;;;;5060227;28;20040;-84
2021/07/04 05:12:04;;;;;;;10.55;7.53;;;18.60;99.90;;;;;;5064971;28;20051;-85
2021/07/04 05:14:51;;;;;;;11.23;8.23;;;18.50;99.90;;;;;;5051716;28;20128;-86
2021/07/04 05:17:40;;;;;;;10.55;7.90;;;18.60;99.90;;;;;;5052829;28;20075;-83
2021/07/04 05:20:27;;;;;;;11.25;7.30;;;18.60;99.90;;;;;;5053580;28;20138;-86
2021/07/04 05:23:14;;;;;;;9.32;6.72;;;18.60;99.90;;;;;;5052546;28;20149;-85
2021/07/04 05:26:01;;;;;;;10.25;7.75;;;18.60;99.90;;;;;;5051764;28;20056;-85
2021/07/04 05:28:48;;;;;;;8.65;6.88;;;18.70;99.90;;;;;;5051662;28;20047;-87
2021/07/04 05:31:36;;;;;;;10.27;7.25;;;18.80;99.90;;;;;;5053934;28;20095;-85
2021/07/04 05:34:27;;;;;;;10.80;7.07;;;18.90;99.90;;;;;;5057269;28;20052;-84
2021/07/04 05:37:14;;;;;;;10.18;7.50;;;18.90;99.90;;;;;;5058461;28;20066;-86
2021/07/04 05:40:03;;;;;;;8.73;6.85;;;19.00;99.90;;;;;;5056450;28;20699;-86
2021/07/04 05:42:51;;;;;;;9.98;6.68;;;19.00;99.90;;;;;;5058485;28;20048;-85
2021/07/04 05:45:38;;;;;;;10.15;6.75;;;19.00;99.90;;;;;;5057334;28;20048;-86
2021/07/04 05:48:26;;;;;;;8.82;6.70;;;19.20;99.90;;;;;;5060405;28;20060;-86
2021/07/04 05:51:15;;;;;;;9.43;6.65;;;19.30;99.90;;;;;;5059853;28;20045;-86
2021/07/04 05:54:02;;;;;;;12.88;7.55;;;19.30;99.90;;;;;;5060645;28;20746;-86
2021/07/04 05:56:49;;;;;;;9.45;6.53;;;19.40;99.90;;;;;;5061389;28;20048;-86
2021/07/04 05:59:36;;;;;;;9.70;7.38;;;19.30;99.90;;;;;;5060738;28;20543;-86
2021/07/04 06:02:23;;;;;;;10.10;7.55;;;19.20;99.90;;;;;;5061267;28;20178;-86
2021/07/04 06:05:13;;;;;;;12.90;7.43;;;19.40;99.90;;;;;;5059807;28;20044;-86
2021/07/04 06:08:02;;;;;;;14.60;6.93;;;19.20;99.90;;;;;;5061764;28;20127;-86
2021/07/04 06:10:53;;;;;;;9.68;7.07;;;19.10;99.90;;;;;;5061470;28;20472;-85
2021/07/04 06:13:40;;;;;;;8.98;6.75;;;19.10;99.90;;;;;;5057055;28;20049;-86
2021/07/04 06:16:28;;;;;;;9.27;7.43;;;19.20;99.90;;;;;;5040844;28;20053;-84
2021/07/04 06:19:15;;;;;;;10.00;6.40;;;19.10;99.90;;;;;;5055270;28;20410;-86
2021/07/04 06:22:03;;;;;;;10.07;7.00;;;19.20;99.90;;;;;;5040789;28;20085;-85
2021/07/04 06:24:51;;;;;;;11.55;6.78;;;19.40;99.90;;;;;;5040492;28;20129;-83
2021/07/04 06:27:39;;;;;;;9.57;6.80;;;19.50;99.90;;;;;;5053119;28;20494;-85
2021/07/04 06:30:27;;;;;;;10.85;7.22;;;19.70;99.90;;;;;;5041686;28;20528;-84
2021/07/04 06:33:14;;;;;;;10.38;7.22;;;19.70;99.90;;;;;;5053587;28;20070;-86
2021/07/04 06:36:01;;;;;;;12.15;7.60;;;19.60;99.90;;;;;;5059840;28;20052;-85
2021/07/04 06:38:48;;;;;;;12.55;7.30;;;19.50;99.90;;;;;;5059719;28;20051;-86
2021/07/04 06:41:37;;;;;;;10.98;7.55;;;19.50;99.90;;;;;;5074160;28;20123;-85
2021/07/04 06:44:24;;;;;;;10.65;7.72;;;19.50;99.90;;;;;;5058829;28;20045;-86
2021/07/04 06:47:11;;;;;;;12.95;7.68;;;19.40;99.90;;;;;;5060014;28;20501;-86
2021/07/04 06:49:58;;;;;;;10.63;7.20;;;19.30;99.90;;;;;;5060104;28;20037;-86
2021/07/04 06:52:46;;;;;;;9.88;7.35;;;19.40;99.90;;;;;;5059581;28;20138;-86
2021/07/04 06:55:34;;;;;;;8.85;6.88;;;19.50;99.90;;;;;;5059631;28;20044;-86
2021/07/04 06:58:22;;;;;;;11.52;7.05;;;19.60;99.90;;;;;;5059286;28;20048;-86
2021/07/04 07:01:12;;;;;;;10.95;7.15;;;19.80;99.90;;;;;;5058628;28;20056;-86
2021/07/04 07:04:00;;;;;;;8.32;6.65;;;20.10;99.90;;;;;;5058317;28;20067;-86
2021/07/04 07:06:47;;;;;;;9.80;6.60;;;20.10;99.90;;;;;;5059058;28;20070;-85
2021/07/04 07:09:34;;;;;;;10.68;6.57;;;20.30;99.90;;;;;;5059101;28;20082;-86
2021/07/04 07:12:21;;;;;;;8.82;6.50;;;20.30;99.90;;;;;;5059218;28;20040;-83
2021/07/04 07:15:11;;;;;;;10.55;6.63;;;20.30;99.90;;;;;;5059344;28;20409;-85
2021/07/04 07:17:58;;;;;;;10.55;7.38;;;20.60;99.90;;;;;;5058711;28;20044;-86
2021/07/04 07:20:45;;;;;;;10.73;7.10;;;20.30;99.90;;;;;;5057766;28;20040;-82
2021/07/04 07:23:32;;;;;;;9.85;6.80;;;20.50;99.90;;;;;;5057402;28;20044;-86
2021/07/04 07:26:19;;;;;;;9.73;7.20;;;20.60;99.90;;;;;;5058742;28;20129;-86
2021/07/04 07:29:07;;;;;;;9.48;6.57;;;20.70;99.90;;;;;;5058089;28;20175;-86
2021/07/04 07:31:55;;;;;;;11.48;6.72;;;20.70;99.90;;;;;;5053167;28;20452;-86
2021/07/04 07:34:42;;;;;;;10.85;6.45;;;20.90;99.90;;;;;;5052864;28;20190;-83
2021/07/04 07:37:29;;;;;;;9.70;6.40;;;21.00;99.90;;;;;;5052511;28;20059;-86
2021/07/04 07:40:17;;;;;;;11.32;6.15;;;21.20;99.90;;;;;;5058162;28;20045;-84
2021/07/04 07:43:05;;;;;;;8.68;6.35;;;21.30;99.90;;;;;;5057767;28;20535;-86
2021/07/04 07:45:52;;;;;;;8.25;6.15;;;20.90;99.90;;;;;;5057366;28;20246;-86
2021/07/04 07:48:40;;;;;;;9.80;6.00;;;20.80;99.90;;;;;;5056973;28;20108;-84
2021/07/04 07:51:27;;;;;;;9.48;6.75;;;21.00;99.90;;;;;;5056965;28;20049;-85
2021/07/04 07:54:15;;;;;;;10.10;6.75;;;21.30;99.90;;;;;;5057071;28;20040;-86
2021/07/04 07:57:03;;;;;;;9.15;6.53;;;21.50;99.90;;;;;;5057341;28;20057;-86
2021/07/04 07:59:50;;;;;;;8.55;6.30;;;21.60;99.90;;;;;;5057401;28;20045;-85
2021/07/04 08:02:37;;;;;;;10.20;5.85;;;21.60;99.90;;;;;;5057391;28;20484;-87
2021/07/04 08:05:27;;;;;;;8.60;6.38;;;21.70;99.90;;;;;;5057343;28;20072;-86
2021/07/04 08:08:14;;;;;;;11.10;6.00;;;22.10;99.90;;;;;;5056340;28;20048;-86
2021/07/04 08:11:01;;;;;;;7.70;5.32;;;22.30;99.90;;;;;;5056534;28;20048;-86
2021/07/04 08:13:48;;;;;;;8.18;5.32;;;22.40;99.90;;;;;;5050906;28;20063;-87
2021/07/04 08:16:35;;;;;;;7.00;5.03;;;22.50;99.90;;;;;;5052050;28;20067;-86
2021/07/04 08:19:22;;;;;;;7.97;5.53;;;22.40;99.90;;;;;;5050254;28;20052;-87
2021/07/04 08:22:11;;;;;;;7.72;5.30;;;22.30;99.90;;;;;;5052085;28;20052;-86
2021/07/04 08:24:58;;;;;;;6.85;5.20;;;22.30;99.90;;;;;;5037596;28;20071;-86
2021/07/04 08:27:45;;;;;;;8.55;5.30;;;22.30;99.90;;;;;;5049881;28;20151;-84
2021/07/04 08:30:33;;;;;;;7.88;4.90;;;22.30;99.90;;;;;;5051896;28;20049;-85
2021/07/04 08:33:22;;;;;;;7.97;5.50;;;22.30;99.90;;;;;;5066493;28;20044;-83
2021/07/04 08:36:09;;;;;;;7.43;5.38;;;22.50;99.90;;;;;;5055427;28;20098;-87
2021/07/04 08:38:58;;;;;;;7.90;5.22;;;22.50;99.90;;;;;;5056425;28;20559;-85
2021/07/04 08:41:45;;;;;;;7.95;5.32;;;22.60;99.90;;;;;;5037421;28;20106;-87
2021/07/04 08:44:32;;;;;;;9.15;5.82;;;22.40;99.90;;;;;;5037388;28;20599;-86
2021/07/04 08:47:21;;;;;;;8.82;5.45;;;22.30;99.90;;;;;;5037412;28;20525;-87
2021/07/04 08:50:09;;;;;;;8.30;5.88;;;22.60;99.90;;;;;;5036285;28;20498;-87
2021/07/04 08:52:59;;;;;;;8.25;5.63;;;22.20;99.90;;;;;;5035945;28;20498;-86
2021/07/04 08:55:48;;;;;;;8.95;5.80;;;22.10;99.90;;;;;;5035801;28;20037;-86
2021/07/04 08:58:35;;;;;;;8.47;5.50;;;22.30;99.90;;;;;;5036957;28;20123;-84
2021/07/04 09:01:48;;;;;;;10.40;6.85;;;22.40;99.90;;;;;;5039828;28;20287;-86
2021/07/04 09:04:35;;;;;;;8.32;5.53;;;22.20;99.90;;;;;;5035722;28;20049;-87
2021/07/04 09:07:25;;;;;;;7.53;5.28;;;22.30;99.90;;;;;;5035887;28;20053;-87
2021/07/04 09:10:14;;;;;;;9.25;6.15;;;22.20;99.90;;;;;;5036471;28;20041;-86
2021/07/04 09:13:24;;;;;;;7.47;5.50;;;22.20;99.90;;;;;;5035855;28;20052;-86
2021/07/04 09:16:14;;;;;;;8.57;5.65;;;22.40;99.90;;;;;;5035975;28;20080;-87
2021/07/04 09:19:09;;;;;;;7.68;5.30;;;22.20;99.90;;;;;;5035407;28;20052;-84
2021/07/04 09:22:02;;;;;;;8.00;5.93;;;22.40;99.90;;;;;;5040620;28;20079;-86
2021/07/04 09:24:49;;;;;;;7.75;5.60;;;22.40;99.90;;;;;;5055770;28;20187;-86
2021/07/04 09:27:36;;;;;;;8.88;6.00;;;22.90;99.90;;;;;;5041195;28;20049;-86
2021/07/04 09:30:31;;;;;;;8.15;5.57;;;22.20;99.90;;;;;;5055988;28;20044;-87
2021/07/04 09:33:20;;;;;;;7.38;5.70;;;22.20;99.90;;;;;;5039708;28;20052;-86
2021/07/04 09:36:09;;;;;;;8.98;5.93;;;22.30;99.90;;;;;;5040162;28;20053;-84
2021/07/04 09:38:56;;;;;;;8.73;6.00;;;22.20;99.90;;;;;;5040419;28;20178;-86
2021/07/04 09:42:08;;;;;;;8.55;5.47;;;22.20;99.90;;;;;;5040550;28;20122;-86
2021/07/04 09:44:56;;;;;;;7.97;5.97;;;22.20;99.90;;;;;;5032596;28;20051;-86
2021/07/04 09:47:50;;;;;;;8.57;6.18;;;22.00;99.90;;;;;;5040521;28;20127;-86
2021/07/04 09:50:39;;;;;;;7.32;5.53;;;21.90;99.90;;;;;;5040925;28;20116;-86
2021/07/04 09:53:31;;;;;;;8.00;5.82;;;22.00;99.90;;;;;;5041130;28;20052;-83
2021/07/04 09:56:21;;;;;;;8.73;6.20;;;22.20;99.90;;;;;;5040366;28;20536;-85
2021/07/04 09:59:21;;;;;;;9.35;5.97;;;22.30;99.90;;;;;;5040713;28;20319;-86
2021/07/04 10:02:12;;;;;;;;;;;22.20;99.90;;;;;;5040695;28;20102;-87
2021/07/04 10:05:13;;;;;;;7.85;5.65;;;22.10;99.90;;;;;;5040883;28;19924;-86
2021/07/04 10:08:00;;;;;;;8.05;5.72;;;22.20;99.90;;;;;;5040756;28;20051;-86
2021/07/04 10:10:48;;;;;;;7.95;5.47;;;22.30;99.90;;;;;;5040785;28;20079;-86
2021/07/04 10:13:37;;;;;;;7.00;5.15;;;22.90;99.90;;;;;;5039996;28;20082;-87
2021/07/04 10:16:25;;;;;;;8.60;5.82;;;22.80;99.90;;;;;;5040318;28;20049;-87
2021/07/04 10:19:17;;;;;;;8.48;5.80;;;22.90;99.90;;;;;;5038198;28;20045;-86
2021/07/04 10:22:07;;;;;;;6.75;4.82;;;23.10;99.90;;;;;;5039830;28;20051;-86
2021/07/04 10:24:55;;;;;;;7.80;5.50;;;23.50;99.90;;;;;;5040735;28;20049;-86
2021/07/04 10:27:43;;;;;;;9.05;5.45;;;23.70;99.90;;;;;;5038112;28;20048;-86
2021/07/04 10:30:32;;;;;;;8.27;5.90;;;23.60;99.90;;;;;;5040964;28;20045;-87
2021/07/04 10:33:22;;;;;;;8.95;6.03;;;23.60;99.90;;;;;;5023830;28;20128;-86
2021/07/04 10:36:12;;;;;;;9.27;6.00;;;23.60;99.90;;;;;;5018888;28;20490;-85
2021/07/04 10:42:10;;;;;;;7.93;5.65;;;23.90;99.90;;;;;;4958572;28;20051;-84
2021/07/04 10:44:57;;;;;;;8.57;6.20;;;24.20;99.90;;;;;;4960442;28;20057;-84
2021/07/04 10:47:45;;;;;;;11.13;7.05;;;24.10;99.90;;;;;;4959842;28;20051;-85
2021/07/04 10:50:32;;;;;;;9.52;6.55;;;24.20;99.90;;;;;;4972330;28;20038;-84
2021/07/04 10:53:44;;;;;;;9.93;6.93;;;24.00;99.90;;;;;;4967529;28;20055;-84
2021/07/04 10:56:39;;;;;;;8.27;6.35;;;24.00;99.90;;;;;;4978531;28;20043;-83
2021/07/04 10:59:27;;;;;;;9.27;6.40;;;24.20;99.90;;;;;;4979203;28;20050;-83
2021/07/04 11:02:36;;;;;;;8.52;6.50;;;24.50;99.90;;;;;;4966224;28;20082;-84
2021/07/04 11:05:46;;;;;;;6.97;5.70;;;24.50;99.90;;;;;;4980100;28;20126;-85
2021/07/04 11:08:52;;;;;;;7.60;6.10;;;25.00;99.90;;;;;;4966798;28;20100;-84
2021/07/04 11:11:39;;;;;;;8.65;6.10;;;25.10;99.90;;;;;;4972708;28;20504;-84
2021/07/04 11:14:27;;;;;;;8.43;6.22;;;25.00;99.90;;;;;;4975633;28;20057;-84
2021/07/04 11:17:14;;;;;;;7.57;5.93;;;25.00;99.90;;;;;;4976043;28;20051;-85
2021/07/04 11:20:09;;;;;;;7.63;5.82;;;24.90;99.90;;;;;;4975042;28;20035;-83
2021/07/04 11:22:57;;;;;;;10.40;6.47;;;25.10;99.90;;;;;;4975782;28;20526;-83
2021/07/04 11:25:46;;;;;;;7.70;5.80;;;25.00;99.90;;;;;;4975177;28;20050;-85
2021/07/04 11:28:34;;;;;;;9.88;7.00;;;24.90;99.90;;;;;;4974044;28;20069;-83
2021/07/04 11:31:30;;;;;;;7.93;5.90;;;24.80;99.90;;;;;;4976051;28;20042;-84
2021/07/04 11:34:21;;;;;;;8.27;5.75;;;24.90;99.90;;;;;;4943676;28;20046;-83
2021/07/04 11:37:09;;;;;;;7.47;5.90;;;24.90;99.90;;;;;;4956670;29;20047;-84
2021/07/04 11:39:58;;;;;;;7.93;5.80;;;25.40;99.90;;;;;;4960473;28;20039;-85
2021/07/04 11:42:45;;;;;;;8.68;6.35;;;25.10;99.90;;;;;;4961280;28;20047;-83
2021/07/04 11:45:33;;;;;;;8.13;5.80;;;25.00;99.90;;;;;;4974845;28;20125;-84
2021/07/04 11:48:22;;;;;;;8.02;5.82;;;25.00;99.70;;;;;;4961485;28;20571;-84
2021/07/04 11:51:10;;;;;;;7.65;5.30;;;25.30;99.30;;;;;;4975116;28;20043;-83
2021/07/04 11:54:00;;;;;;;8.60;5.18;;;25.50;99.90;;;;;;4961682;28;20046;-84
2021/07/04 11:56:50;;;;;;;7.32;5.50;;;25.80;99.00;;;;;;4962644;28;20423;-83
2021/07/04 11:59:38;;;;;;;11.55;5.40;;;26.10;99.10;;;;;;4961317;28;20045;-84
2021/07/04 12:02:26;;;;;;;8.57;5.15;;;26.00;98.10;;;;;;4961412;28;20050;-83
2021/07/04 12:05:15;;;;;;;7.78;5.30;;;26.00;98.90;;;;;;4962179;28;20075;-85
2021/07/04 12:08:02;;;;;;;6.40;5.07;;;25.90;98.20;;;;;;4976236;28;20088;-85
2021/07/04 12:10:50;;;;;;;7.68;5.78;;;25.80;99.30;;;;;;4961490;28;20424;-84
2021/07/04 12:13:37;;;;;;;9.85;6.05;;;25.70;98.70;;;;;;4993300;28;20047;-83
2021/07/04 12:16:25;;;;;;;7.70;5.07;;;25.80;98.90;;;;;;4994377;28;20049;-84
2021/07/04 12:19:24;;;;;;;7.65;5.15;;;26.20;98.40;;;;;;4994661;28;20053;-85
2021/07/04 12:22:18;;;;;;;7.68;5.20;;;26.40;97.80;;;;;;4993940;28;20563;-85
2021/07/04 12:25:12;;;;;;;8.07;5.60;;;26.40;98.20;;;;;;4995441;28;20046;-84
2021/07/04 12:28:01;;;;;;;8.00;5.30;;;26.70;97.60;;;;;;4994213;28;20129;-82
2021/07/04 12:30:49;;;;;;;;;;;26.60;98.40;;;;;;4994163;28;20504;-83
2021/07/04 12:33:42;;;;;;;6.30;4.72;;;27.00;98.30;;;;;;4995298;28;20024;-83
2021/07/04 12:36:33;;;;;;;9.52;4.72;;;27.20;98.80;;;;;;4980295;28;20043;-83
2021/07/04 12:39:29;;;;;;;7.40;4.47;;;27.60;95.50;;;;;;4994187;28;20042;-82
2021/07/04 12:42:23;;;;;;;8.00;5.40;;;27.70;96.20;;;;;;4994014;28;20119;-83
2021/07/04 12:45:13;;;;;;;6.90;4.90;;;27.40;94.10;;;;;;4995154;28;20042;-84
2021/07/04 12:48:03;;;;;;;10.10;4.88;;;27.30;94.70;;;;;;4994472;28;20108;-83
2021/07/04 12:50:55;;;;;;;6.25;4.50;;;27.70;95.30;;;;;;4994210;28;20507;-85
2021/07/04 12:53:43;;;;;;;7.28;4.70;;;28.10;95.40;;;;;;4979735;28;20404;-84
2021/07/04 12:56:33;;;;;;;5.63;4.53;;;27.90;94.40;;;;;;4980919;28;20482;-83
2021/07/04 12:59:26;;;;;;;7.18;4.82;;;29.80;95.80;;;;;;4981224;28;20395;-84
2021/07/04 13:02:14;;;;;;;6.97;4.45;;;28.00;94.50;;;;;;4980738;28;20078;-83
2021/07/04 13:05:01;;;;;;;8.05;5.25;;;28.20;95.20;;;;;;4980016;28;20137;-83
2021/07/04 13:07:48;;;;;;;9.95;5.32;;;27.80;94.50;;;;;;4994383;28;20125;-85
2021/07/04 13:10:36;;;;;;;12.02;4.88;;;27.70;95.00;;;;;;4994027;28;20068;-84
2021/07/04 13:13:24;;;;;;;7.18;4.78;;;28.00;95.50;;;;;;4991195;28;20181;-84
2021/07/04 13:16:14;;;;;;;7.07;5.00;;;27.80;94.60;;;;;;4995482;28;20054;-85
2021/07/04 13:19:20;;;;;;;7.40;5.28;;;27.30;94.70;;;;;;4994282;28;20046;-83
2021/07/04 13:22:16;;;;;;;7.20;4.93;;;27.20;95.70;;;;;;4995232;28;20121;-85
2021/07/04 13:25:06;;;;;;;6.93;4.50;;;27.00;95.70;;;;;;4994994;28;20129;-84
2021/07/04 13:28:02;;;;;;;7.60;4.78;;;27.40;96.00;;;;;;4994316;28;20500;-83
2021/07/04 13:30:55;;;;;;;8.35;4.72;;;27.30;95.10;;;;;;4995767;28;20419;-84
2021/07/04 13:33:42;;;;;;;7.18;5.03;;;27.50;95.50;;;;;;4993576;28;20046;-85
2021/07/04 13:36:29;;;;;;;5.80;4.38;;;27.70;95.60;;;;;;4980756;28;20080;-84
2021/07/04 13:39:16;;;;;;;6.65;4.80;;;27.80;95.10;;;;;;4980190;28;20056;-83
2021/07/04 13:42:05;;;;;;;10.23;4.88;;;27.80;95.60;;;;;;4993675;28;20101;-83
2021/07/04 13:44:53;;;;;;;8.50;5.47;;;27.40;95.60;;;;;;4994542;28;20050;-83
2021/07/04 13:47:41;;;;;;;7.25;5.13;;;27.10;96.10;;;;;;4979823;28;20047;-83
2021/07/04 13:50:30;;;;;;;6.22;4.88;;;26.80;95.70;;;;;;4995267;28;20097;-83
2021/07/04 13:53:18;;;;;;;8.23;5.13;;;26.60;97.10;;;;;;4993599;28;20110;-83
2021/07/04 13:56:05;;;;;;;6.30;5.15;;;26.70;96.90;;;;;;4980027;28;20106;-84
2021/07/04 13:58:52;;;;;;;8.20;5.55;;;26.70;97.80;;;;;;4980793;28;20416;-84
2021/07/04 14:01:39;;;;;;;8.48;5.32;;;26.60;98.10;;;;;;4978833;28;20042;-84
2021/07/04 14:04:28;;;;;;;6.55;5.00;;;26.40;97.10;;;;;;4993002;28;20050;-84
2021/07/04 14:07:15;;;;;;;6.90;5.37;;;26.40;98.10;;;;;;4995473;28;20046;-83
2021/07/04 14:10:03;;;;;;;7.95;5.03;;;26.60;97.50;;;;;;4983851;28;20286;-85
2021/07/04 14:12:50;;;;;;;9.43;5.60;;;26.60;98.00;;;;;;4997008;28;20125;-85
2021/07/04 14:15:38;;;;;;;6.78;5.28;;;26.60;97.80;;;;;;4999102;28;20106;-84
2021/07/04 14:18:25;;;;;;;6.68;4.97;;;26.70;98.10;;;;;;4998399;28;20046;-85
2021/07/04 14:21:13;;;;;;;6.75;5.07;;;26.90;98.20;;;;;;4998163;28;20038;-85
2021/07/04 14:24:00;;;;;;;7.38;5.65;;;27.10;97.20;;;;;;4997535;28;20050;-85
2021/07/04 14:26:47;;;;;;;7.47;5.20;;;27.10;97.40;;;;;;4998003;28;20049;-84
2021/07/04 14:29:35;;;;;;;8.38;4.88;;;27.00;98.40;;;;;;4997647;28;20050;-83
2021/07/04 14:32:22;;;;;;;7.15;5.07;;;27.40;99.10;;;;;;4996725;28;20043;-83
2021/07/04 14:35:10;;;;;;;8.45;4.47;;;26.90;97.60;;;;;;4984357;28;20133;-84
2021/07/04 14:38:00;;;;;;;8.68;5.13;;;26.80;97.40;;;;;;4996939;28;20058;-83
2021/07/04 14:40:47;;;;;;;6.18;4.80;;;26.70;98.30;;;;;;4983013;28;20127;-83